Sao Paulo de Olivenca, Brazil
Current Conditions -  °F | °C
As of 6:00 AM on Saturday 22 Nov 2014 (Local Time) from SKLT Reporting Station
Clear Clear  
Wind Chill: 75°   Ceiling: Unl
Heat Index: 75°   Visibility: 6mi
Dew Point: 73°   Wind: 0mph
Humidity: 94%   Direction: NA
Pressure: 29.79"   Gusts: NA
Location:  3.38°S, 68.87°W
Report Text: SKLT 221000Z 00000KT CAVOK 24/23 A2979
Loading
Personal Weather Stations






























Interactive Weather Map New forecast layout! Learn more

10-Day Weather Forecast

Advertisements
Track Severe Weather on mobile